ZKVME NZNS-NZQN
Flight info
| Callsign | ZKVME |
|---|---|
| Flight time | 1h 16m |
| Altitude | 26000 |
| Route | NESTA Q787 DUBON Y628 UPNIX Y266 ELRUV |
| Aircraft | B350/L-SBGRW/S |
Departure
| Time | 2026-04-14 01:38 |
|---|---|
| Airport | Nelson Airport (NZNS) |
Arrival
| Time | 2026-04-14 02:54 |
|---|---|
| Airport | Queenstown Airport (NZQN) |
| Time | Latitude | Longitude | Altitude | Speed | Heading |
|---|---|---|---|---|---|
| 2026-04-14 01:18 | -41.29535 | 173.23112 | 11 ft | 0 kts | 172° |
| 2026-04-14 01:22 | -41.29552 | 173.23125 | 11 ft | 0 kts | 137° |
| 2026-04-14 01:23 | -41.29545 | 173.23117 | 11 ft | 2 kts | 136° |
| 2026-04-14 01:23 | -41.29538 | 173.23108 | 11 ft | 0 kts | 136° |
| 2026-04-14 01:33 | -41.29539 | 173.23117 | 11 ft | 2 kts | 54° |
| 2026-04-14 01:34 | -41.29526 | 173.23069 | 11 ft | 10 kts | 249° |
| 2026-04-14 01:34 | -41.29540 | 173.22970 | 11 ft | 14 kts | 277° |
| 2026-04-14 01:34 | -41.29510 | 173.22864 | 11 ft | 13 kts | 272° |
| 2026-04-14 01:34 | -41.29566 | 173.22774 | 11 ft | 14 kts | 230° |
| 2026-04-14 01:35 | -41.29605 | 173.22645 | 11 ft | 16 kts | 220° |
| 2026-04-14 01:35 | -41.29692 | 173.22558 | 11 ft | 16 kts | 197° |
| 2026-04-14 01:35 | -41.29795 | 173.22504 | 11 ft | 16 kts | 202° |
| 2026-04-14 01:35 | -41.29879 | 173.22417 | 11 ft | 18 kts | 223° |
| 2026-04-14 01:36 | -41.29977 | 173.22302 | 11 ft | 18 kts | 222° |
| 2026-04-14 01:36 | -41.30072 | 173.22196 | 11 ft | 17 kts | 223° |
| 2026-04-14 01:36 | -41.30159 | 173.22097 | 11 ft | 16 kts | 220° |
| 2026-04-14 01:36 | -41.30204 | 173.22027 | 11 ft | 5 kts | 272° |
| 2026-04-14 01:37 | -41.30195 | 173.21998 | 11 ft | 0 kts | 315° |
| 2026-04-14 01:37 | -41.30194 | 173.21997 | 11 ft | 0 kts | 315° |
| 2026-04-14 01:37 | -41.30161 | 173.21948 | 11 ft | 11 kts | 312° |
| 2026-04-14 01:37 | -41.30086 | 173.21959 | 11 ft | 29 kts | 38° |
| 2026-04-14 01:38 | -41.29010 | 173.23230 | 481 ft | 130 kts | 35° |
| 2026-04-14 01:38 | -41.28163 | 173.23829 | 878 ft | 154 kts | 19° |
| 2026-04-14 01:38 | -41.27153 | 173.24382 | 1368 ft | 154 kts | 21° |
| 2026-04-14 01:39 | -41.26157 | 173.24854 | 1853 ft | 155 kts | 1° |
| 2026-04-14 01:39 | -41.25155 | 173.24420 | 2260 ft | 153 kts | 318° |
| 2026-04-14 01:39 | -41.24586 | 173.23270 | 2802 ft | 150 kts | 289° |
| 2026-04-14 01:39 | -41.24317 | 173.21913 | 3306 ft | 155 kts | 282° |
| 2026-04-14 01:40 | -41.24079 | 173.20503 | 3949 ft | 156 kts | 283° |
| 2026-04-14 01:40 | -41.23826 | 173.19112 | 4597 ft | 155 kts | 284° |
| 2026-04-14 01:40 | -41.23558 | 173.17732 | 5222 ft | 155 kts | 284° |
| 2026-04-14 01:40 | -41.23278 | 173.16339 | 5867 ft | 157 kts | 285° |
| 2026-04-14 01:41 | -41.22991 | 173.14938 | 6546 ft | 158 kts | 285° |
| 2026-04-14 01:41 | -41.22698 | 173.13522 | 7237 ft | 159 kts | 285° |
| 2026-04-14 01:41 | -41.22543 | 173.12068 | 7935 ft | 160 kts | 273° |
| 2026-04-14 01:41 | -41.22531 | 173.10599 | 8606 ft | 158 kts | 271° |
| 2026-04-14 01:42 | -41.22531 | 173.09138 | 9178 ft | 158 kts | 271° |
| 2026-04-14 01:42 | -41.22521 | 173.07680 | 9733 ft | 158 kts | 272° |
| 2026-04-14 01:42 | -41.22501 | 173.06228 | 10297 ft | 157 kts | 273° |
| 2026-04-14 01:42 | -41.22479 | 173.04781 | 10849 ft | 156 kts | 273° |
| 2026-04-14 01:43 | -41.22454 | 173.03341 | 11398 ft | 155 kts | 274° |
| 2026-04-14 01:43 | -41.22428 | 173.01907 | 11939 ft | 155 kts | 274° |
| 2026-04-14 01:43 | -41.22658 | 173.00494 | 12465 ft | 162 kts | 251° |
| 2026-04-14 01:43 | -41.23268 | 172.99197 | 12920 ft | 171 kts | 241° |
| 2026-04-14 01:44 | -41.24030 | 172.97957 | 13397 ft | 174 kts | 237° |
| 2026-04-14 01:44 | -41.24841 | 172.96778 | 13874 ft | 176 kts | 236° |
| 2026-04-14 01:44 | -41.25696 | 172.95574 | 14263 ft | 184 kts | 235° |
| 2026-04-14 01:44 | -41.26605 | 172.94311 | 14472 ft | 199 kts | 235° |
| 2026-04-14 01:45 | -41.27594 | 172.92956 | 14776 ft | 201 kts | 234° |
| 2026-04-14 01:45 | -41.28567 | 172.91666 | 15320 ft | 197 kts | 234° |
| 2026-04-14 01:45 | -41.29538 | 172.90371 | 15719 ft | 198 kts | 234° |
| 2026-04-14 01:45 | -41.30538 | 172.89092 | 16108 ft | 204 kts | 227° |
| 2026-04-14 01:46 | -41.31897 | 172.88314 | 16484 ft | 221 kts | 203° |
| 2026-04-14 01:46 | -41.33427 | 172.87939 | 16877 ft | 225 kts | 199° |
| 2026-04-14 01:46 | -41.34982 | 172.87616 | 17244 ft | 227 kts | 198° |
| 2026-04-14 01:46 | -41.36546 | 172.87293 | 17604 ft | 229 kts | 198° |
| 2026-04-14 01:47 | -41.38124 | 172.86969 | 17969 ft | 230 kts | 199° |
| 2026-04-14 01:47 | -41.39708 | 172.86648 | 18325 ft | 231 kts | 199° |
| 2026-04-14 01:47 | -41.41310 | 172.86327 | 18667 ft | 233 kts | 199° |
| 2026-04-14 01:47 | -41.42925 | 172.86007 | 19001 ft | 235 kts | 198° |
| 2026-04-14 01:48 | -41.44551 | 172.85687 | 19336 ft | 237 kts | 198° |
| 2026-04-14 01:48 | -41.46191 | 172.85366 | 19660 ft | 239 kts | 199° |
| 2026-04-14 01:48 | -41.47843 | 172.85046 | 19978 ft | 241 kts | 199° |
| 2026-04-14 01:48 | -41.49510 | 172.84727 | 20297 ft | 243 kts | 199° |
| 2026-04-14 01:49 | -41.51182 | 172.84380 | 20600 ft | 244 kts | 200° |
| 2026-04-14 01:49 | -41.52850 | 172.83971 | 20907 ft | 244 kts | 202° |
| 2026-04-14 01:49 | -41.54522 | 172.83527 | 21196 ft | 245 kts | 202° |
| 2026-04-14 01:49 | -41.56198 | 172.83076 | 21496 ft | 247 kts | 203° |
| 2026-04-14 01:50 | -41.57890 | 172.82620 | 21767 ft | 249 kts | 202° |
| 2026-04-14 01:50 | -41.59593 | 172.82163 | 22045 ft | 251 kts | 202° |
| 2026-04-14 01:50 | -41.61307 | 172.81703 | 22321 ft | 252 kts | 202° |
| 2026-04-14 01:50 | -41.63039 | 172.81243 | 22577 ft | 255 kts | 202° |
| 2026-04-14 01:51 | -41.64779 | 172.80786 | 22851 ft | 256 kts | 202° |
| 2026-04-14 01:51 | -41.66535 | 172.80329 | 23103 ft | 258 kts | 202° |
| 2026-04-14 01:51 | -41.68303 | 172.79871 | 23361 ft | 259 kts | 203° |
| 2026-04-14 01:51 | -41.70068 | 172.79402 | 23620 ft | 259 kts | 204° |
| 2026-04-14 01:52 | -41.71853 | 172.78861 | 23687 ft | 268 kts | 205° |
| 2026-04-14 01:52 | -41.73625 | 172.78107 | 23825 ft | 264 kts | 214° |
| 2026-04-14 01:52 | -41.75270 | 172.77092 | 24051 ft | 258 kts | 221° |
| 2026-04-14 01:52 | -41.76818 | 172.75909 | 24256 ft | 255 kts | 225° |
| 2026-04-14 01:53 | -41.78295 | 172.74620 | 24461 ft | 252 kts | 228° |
| 2026-04-14 01:53 | -41.79728 | 172.73266 | 24662 ft | 252 kts | 230° |
| 2026-04-14 01:53 | -41.80663 | 172.72347 | 24781 ft | 252 kts | 230° |
| 2026-04-14 01:53 | -41.82065 | 172.70939 | 24975 ft | 252 kts | 231° |
| 2026-04-14 01:54 | -41.83467 | 172.69514 | 25167 ft | 253 kts | 230° |
| 2026-04-14 01:54 | -41.84879 | 172.68089 | 25305 ft | 257 kts | 230° |
| 2026-04-14 01:54 | -41.86321 | 172.66640 | 25424 ft | 261 kts | 230° |
| 2026-04-14 01:54 | -41.87785 | 172.65168 | 25489 ft | 266 kts | 230° |
| 2026-04-14 01:55 | -41.89282 | 172.63661 | 25505 ft | 272 kts | 230° |
| 2026-04-14 01:55 | -41.90810 | 172.62123 | 25506 ft | 277 kts | 229° |
| 2026-04-14 01:55 | -41.92367 | 172.60556 | 25504 ft | 282 kts | 229° |
| 2026-04-14 01:55 | -41.93949 | 172.58967 | 25502 ft | 286 kts | 229° |
| 2026-04-14 01:56 | -41.95550 | 172.57360 | 25500 ft | 289 kts | 229° |
| 2026-04-14 01:56 | -41.97164 | 172.55740 | 25499 ft | 291 kts | 229° |
| 2026-04-14 01:56 | -41.98788 | 172.54110 | 25495 ft | 292 kts | 229° |
| 2026-04-14 01:56 | -42.00422 | 172.52469 | 25490 ft | 294 kts | 229° |
| 2026-04-14 01:57 | -42.02062 | 172.50821 | 25486 ft | 295 kts | 229° |
| 2026-04-14 01:57 | -42.03709 | 172.49165 | 25484 ft | 296 kts | 229° |
| 2026-04-14 01:57 | -42.05357 | 172.47507 | 25483 ft | 297 kts | 229° |
| 2026-04-14 01:57 | -42.07008 | 172.45840 | 25482 ft | 297 kts | 229° |
| 2026-04-14 01:58 | -42.08662 | 172.44170 | 25480 ft | 297 kts | 229° |
| 2026-04-14 01:58 | -42.10319 | 172.42497 | 25478 ft | 298 kts | 229° |
| 2026-04-14 01:58 | -42.11978 | 172.40822 | 25477 ft | 298 kts | 229° |
| 2026-04-14 01:58 | -42.13636 | 172.39147 | 25476 ft | 298 kts | 229° |
| 2026-04-14 01:59 | -42.15295 | 172.37469 | 25474 ft | 298 kts | 229° |
| 2026-04-14 01:59 | -42.16956 | 172.35788 | 25473 ft | 299 kts | 229° |
| 2026-04-14 01:59 | -42.18619 | 172.34104 | 25472 ft | 299 kts | 229° |
| 2026-04-14 01:59 | -42.20258 | 172.32441 | 25471 ft | 299 kts | 229° |
| 2026-04-14 02:00 | -42.21940 | 172.30734 | 25469 ft | 299 kts | 229° |
| 2026-04-14 02:00 | -42.23578 | 172.29071 | 25468 ft | 299 kts | 229° |
| 2026-04-14 02:00 | -42.25241 | 172.27380 | 25467 ft | 299 kts | 229° |
| 2026-04-14 02:00 | -42.26902 | 172.25691 | 25467 ft | 299 kts | 229° |
| 2026-04-14 02:01 | -42.28560 | 172.24003 | 25465 ft | 299 kts | 229° |
| 2026-04-14 02:01 | -42.30218 | 172.22314 | 25464 ft | 299 kts | 229° |
| 2026-04-14 02:01 | -42.31880 | 172.20621 | 25463 ft | 299 kts | 229° |
| 2026-04-14 02:01 | -42.33538 | 172.18931 | 25462 ft | 299 kts | 229° |
| 2026-04-14 02:02 | -42.35198 | 172.17237 | 25461 ft | 299 kts | 229° |
| 2026-04-14 02:02 | -42.36858 | 172.15542 | 25460 ft | 299 kts | 229° |
| 2026-04-14 02:02 | -42.38516 | 172.13848 | 25459 ft | 299 kts | 229° |
| 2026-04-14 02:02 | -42.40175 | 172.12153 | 25458 ft | 299 kts | 229° |
| 2026-04-14 02:03 | -42.41834 | 172.10456 | 25457 ft | 299 kts | 229° |
| 2026-04-14 02:03 | -42.43492 | 172.08758 | 25456 ft | 299 kts | 229° |
| 2026-04-14 02:03 | -42.45148 | 172.07057 | 25456 ft | 299 kts | 229° |
| 2026-04-14 02:03 | -42.46802 | 172.05352 | 25455 ft | 299 kts | 229° |
| 2026-04-14 02:04 | -42.48452 | 172.03643 | 25455 ft | 299 kts | 229° |
| 2026-04-14 02:04 | -42.50104 | 172.01934 | 25454 ft | 299 kts | 229° |
| 2026-04-14 02:04 | -42.51755 | 172.00226 | 25453 ft | 299 kts | 229° |
| 2026-04-14 02:04 | -42.53404 | 171.98516 | 25452 ft | 298 kts | 229° |
| 2026-04-14 02:05 | -42.55049 | 171.96799 | 25451 ft | 298 kts | 229° |
| 2026-04-14 02:05 | -42.56692 | 171.95076 | 25450 ft | 298 kts | 229° |
| 2026-04-14 02:05 | -42.58332 | 171.93354 | 25450 ft | 298 kts | 229° |
| 2026-04-14 02:05 | -42.59972 | 171.91631 | 25449 ft | 298 kts | 229° |
| 2026-04-14 02:06 | -42.61614 | 171.89903 | 25449 ft | 298 kts | 229° |
| 2026-04-14 02:06 | -42.63252 | 171.88172 | 25448 ft | 298 kts | 229° |
| 2026-04-14 02:06 | -42.64888 | 171.86440 | 25448 ft | 298 kts | 229° |
| 2026-04-14 02:06 | -42.66520 | 171.84706 | 25447 ft | 298 kts | 229° |
| 2026-04-14 02:07 | -42.68152 | 171.82967 | 25447 ft | 298 kts | 229° |
| 2026-04-14 02:07 | -42.69781 | 171.81226 | 25446 ft | 298 kts | 229° |
| 2026-04-14 02:07 | -42.71391 | 171.79501 | 25446 ft | 298 kts | 229° |
| 2026-04-14 02:07 | -42.73015 | 171.77754 | 25446 ft | 298 kts | 229° |
| 2026-04-14 02:08 | -42.74641 | 171.76001 | 25445 ft | 298 kts | 229° |
| 2026-04-14 02:08 | -42.76262 | 171.74252 | 25445 ft | 298 kts | 229° |
| 2026-04-14 02:08 | -42.77883 | 171.72501 | 25445 ft | 297 kts | 229° |
| 2026-04-14 02:08 | -42.79503 | 171.70749 | 25444 ft | 297 kts | 229° |
| 2026-04-14 02:09 | -42.81120 | 171.68994 | 25444 ft | 297 kts | 229° |
| 2026-04-14 02:09 | -42.82735 | 171.67237 | 25444 ft | 297 kts | 229° |
| 2026-04-14 02:09 | -42.84348 | 171.65478 | 25443 ft | 297 kts | 229° |
| 2026-04-14 02:09 | -42.85960 | 171.63713 | 25443 ft | 297 kts | 229° |
| 2026-04-14 02:10 | -42.87568 | 171.61948 | 25443 ft | 297 kts | 229° |
| 2026-04-14 02:10 | -42.89174 | 171.60183 | 25443 ft | 297 kts | 229° |
| 2026-04-14 02:10 | -42.90782 | 171.58415 | 25442 ft | 297 kts | 229° |
| 2026-04-14 02:10 | -42.92390 | 171.56646 | 25442 ft | 297 kts | 229° |
| 2026-04-14 02:11 | -42.93996 | 171.54877 | 25442 ft | 297 kts | 229° |
| 2026-04-14 02:11 | -42.95599 | 171.53103 | 25442 ft | 297 kts | 229° |
| 2026-04-14 02:11 | -42.97202 | 171.51327 | 25442 ft | 297 kts | 229° |
| 2026-04-14 02:11 | -42.98801 | 171.49551 | 25441 ft | 296 kts | 229° |
| 2026-04-14 02:12 | -43.00399 | 171.47771 | 25441 ft | 296 kts | 229° |
| 2026-04-14 02:12 | -43.01994 | 171.45988 | 25441 ft | 296 kts | 229° |
| 2026-04-14 02:12 | -43.03587 | 171.44205 | 25441 ft | 296 kts | 230° |
| 2026-04-14 02:12 | -43.05180 | 171.42420 | 25441 ft | 296 kts | 229° |
| 2026-04-14 02:13 | -43.06768 | 171.40634 | 25440 ft | 296 kts | 229° |
| 2026-04-14 02:13 | -43.08356 | 171.38843 | 25440 ft | 296 kts | 230° |
| 2026-04-14 02:13 | -43.09942 | 171.37051 | 25440 ft | 296 kts | 230° |
| 2026-04-14 02:13 | -43.11524 | 171.35255 | 25441 ft | 295 kts | 230° |
| 2026-04-14 02:14 | -43.13106 | 171.33459 | 25441 ft | 295 kts | 230° |
| 2026-04-14 02:14 | -43.14686 | 171.31660 | 25440 ft | 295 kts | 230° |
| 2026-04-14 02:14 | -43.16268 | 171.29855 | 25441 ft | 295 kts | 230° |
| 2026-04-14 02:14 | -43.17843 | 171.28052 | 25441 ft | 295 kts | 230° |
| 2026-04-14 02:15 | -43.19419 | 171.26250 | 25440 ft | 295 kts | 230° |
| 2026-04-14 02:15 | -43.20995 | 171.24445 | 25439 ft | 295 kts | 230° |
| 2026-04-14 02:15 | -43.22566 | 171.22639 | 25439 ft | 295 kts | 230° |
| 2026-04-14 02:15 | -43.24134 | 171.20829 | 25440 ft | 295 kts | 230° |
| 2026-04-14 02:16 | -43.25703 | 171.19017 | 25440 ft | 295 kts | 230° |
| 2026-04-14 02:16 | -43.27270 | 171.17208 | 25439 ft | 295 kts | 230° |
| 2026-04-14 02:16 | -43.28841 | 171.15394 | 25439 ft | 295 kts | 230° |
| 2026-04-14 02:16 | -43.30407 | 171.13584 | 25439 ft | 295 kts | 230° |
| 2026-04-14 02:17 | -43.31973 | 171.11767 | 25439 ft | 294 kts | 230° |
| 2026-04-14 02:17 | -43.33536 | 171.09948 | 25439 ft | 294 kts | 230° |
| 2026-04-14 02:17 | -43.35097 | 171.08131 | 25438 ft | 294 kts | 230° |
| 2026-04-14 02:17 | -43.36658 | 171.06311 | 25438 ft | 294 kts | 230° |
| 2026-04-14 02:18 | -43.38216 | 171.04494 | 25438 ft | 294 kts | 230° |
| 2026-04-14 02:18 | -43.39773 | 171.02669 | 25440 ft | 293 kts | 230° |
| 2026-04-14 02:18 | -43.41323 | 171.00843 | 25439 ft | 294 kts | 230° |
| 2026-04-14 02:18 | -43.42875 | 170.99017 | 25438 ft | 294 kts | 230° |
| 2026-04-14 02:19 | -43.44428 | 170.97188 | 25438 ft | 293 kts | 230° |
| 2026-04-14 02:19 | -43.45958 | 170.95386 | 25437 ft | 293 kts | 230° |
| 2026-04-14 02:19 | -43.47507 | 170.93560 | 25437 ft | 293 kts | 230° |
| 2026-04-14 02:19 | -43.49057 | 170.91732 | 25433 ft | 293 kts | 230° |
| 2026-04-14 02:20 | -43.50606 | 170.89904 | 25427 ft | 293 kts | 230° |
| 2026-04-14 02:20 | -43.52151 | 170.88072 | 25425 ft | 293 kts | 230° |
| 2026-04-14 02:20 | -43.53690 | 170.86236 | 25424 ft | 293 kts | 230° |
| 2026-04-14 02:20 | -43.55230 | 170.84400 | 25423 ft | 293 kts | 230° |
| 2026-04-14 02:21 | -43.56788 | 170.82535 | 25423 ft | 292 kts | 230° |
| 2026-04-14 02:21 | -43.58322 | 170.80695 | 25422 ft | 292 kts | 230° |
| 2026-04-14 02:21 | -43.59835 | 170.78878 | 25422 ft | 292 kts | 230° |
| 2026-04-14 02:21 | -43.61367 | 170.77037 | 25422 ft | 292 kts | 230° |
| 2026-04-14 02:22 | -43.62896 | 170.75193 | 25421 ft | 292 kts | 230° |
| 2026-04-14 02:22 | -43.64423 | 170.73346 | 25421 ft | 292 kts | 230° |
| 2026-04-14 02:22 | -43.65947 | 170.71499 | 25420 ft | 292 kts | 230° |
| 2026-04-14 02:22 | -43.67471 | 170.69651 | 25420 ft | 291 kts | 230° |
| 2026-04-14 02:23 | -43.69152 | 170.68024 | 25417 ft | 304 kts | 212° |
| 2026-04-14 02:23 | -43.71267 | 170.67400 | 25418 ft | 321 kts | 187° |
| 2026-04-14 02:23 | -43.73514 | 170.67752 | 25425 ft | 330 kts | 172° |
| 2026-04-14 02:23 | -43.75710 | 170.68734 | 25423 ft | 334 kts | 163° |
| 2026-04-14 02:24 | -43.77859 | 170.69967 | 25421 ft | 335 kts | 161° |
| 2026-04-14 02:24 | -43.79991 | 170.71270 | 25419 ft | 335 kts | 160° |
| 2026-04-14 02:24 | -43.82131 | 170.72572 | 25418 ft | 335 kts | 161° |
| 2026-04-14 02:24 | -43.84279 | 170.73838 | 25418 ft | 335 kts | 162° |
| 2026-04-14 02:25 | -43.86441 | 170.75049 | 25418 ft | 335 kts | 163° |
| 2026-04-14 02:25 | -43.88618 | 170.76200 | 25418 ft | 334 kts | 164° |
| 2026-04-14 02:25 | -43.90805 | 170.77285 | 25417 ft | 334 kts | 166° |
| 2026-04-14 02:25 | -43.93011 | 170.78301 | 25417 ft | 333 kts | 167° |
| 2026-04-14 02:26 | -43.95231 | 170.79188 | 25417 ft | 332 kts | 171° |
| 2026-04-14 02:26 | -43.97482 | 170.79834 | 25416 ft | 329 kts | 176° |
| 2026-04-14 02:26 | -43.99741 | 170.80205 | 25416 ft | 326 kts | 182° |
| 2026-04-14 02:26 | -44.01995 | 170.80321 | 25417 ft | 323 kts | 186° |
| 2026-04-14 02:27 | -44.04231 | 170.80224 | 25416 ft | 320 kts | 190° |
| 2026-04-14 02:27 | -44.06442 | 170.79960 | 25415 ft | 318 kts | 193° |
| 2026-04-14 02:27 | -44.08604 | 170.79577 | 25414 ft | 316 kts | 195° |
| 2026-04-14 02:27 | -44.10776 | 170.79098 | 25414 ft | 315 kts | 197° |
| 2026-04-14 02:28 | -44.12931 | 170.78556 | 25413 ft | 315 kts | 198° |
| 2026-04-14 02:28 | -44.15076 | 170.77972 | 25412 ft | 314 kts | 198° |
| 2026-04-14 02:28 | -44.17219 | 170.77359 | 25412 ft | 314 kts | 199° |
| 2026-04-14 02:28 | -44.19356 | 170.76729 | 25411 ft | 313 kts | 199° |
| 2026-04-14 02:29 | -44.21402 | 170.75830 | 25409 ft | 302 kts | 215° |
| 2026-04-14 02:29 | -44.23082 | 170.74172 | 25412 ft | 292 kts | 229° |
| 2026-04-14 02:29 | -44.24492 | 170.72166 | 25411 ft | 287 kts | 236° |
| 2026-04-14 02:29 | -44.25739 | 170.70011 | 25410 ft | 284 kts | 240° |
| 2026-04-14 02:30 | -44.26891 | 170.67779 | 25409 ft | 283 kts | 243° |
| 2026-04-14 02:30 | -44.27982 | 170.65503 | 25408 ft | 282 kts | 244° |
| 2026-04-14 02:30 | -44.29036 | 170.63197 | 25407 ft | 281 kts | 245° |
| 2026-04-14 02:30 | -44.30063 | 170.60877 | 25406 ft | 281 kts | 245° |
| 2026-04-14 02:31 | -44.31073 | 170.58544 | 25406 ft | 280 kts | 246° |
| 2026-04-14 02:31 | -44.32069 | 170.56205 | 25405 ft | 280 kts | 246° |
| 2026-04-14 02:31 | -44.33056 | 170.53859 | 25405 ft | 280 kts | 246° |
| 2026-04-14 02:31 | -44.34023 | 170.51544 | 25404 ft | 280 kts | 247° |
| 2026-04-14 02:32 | -44.34999 | 170.49193 | 25404 ft | 279 kts | 247° |
| 2026-04-14 02:32 | -44.35968 | 170.46845 | 25403 ft | 279 kts | 247° |
| 2026-04-14 02:32 | -44.36937 | 170.44492 | 25402 ft | 279 kts | 247° |
| 2026-04-14 02:32 | -44.37904 | 170.42135 | 25402 ft | 279 kts | 247° |
| 2026-04-14 02:33 | -44.38870 | 170.39777 | 25401 ft | 279 kts | 247° |
| 2026-04-14 02:33 | -44.39834 | 170.37421 | 25401 ft | 279 kts | 247° |
| 2026-04-14 02:33 | -44.40797 | 170.35062 | 25400 ft | 279 kts | 247° |
| 2026-04-14 02:34 | -44.42721 | 170.30345 | 25399 ft | 279 kts | 247° |
| 2026-04-14 02:34 | -44.43680 | 170.27987 | 25399 ft | 279 kts | 247° |
| 2026-04-14 02:34 | -44.44640 | 170.25627 | 25398 ft | 279 kts | 247° |
| 2026-04-14 02:34 | -44.45600 | 170.23264 | 25398 ft | 279 kts | 247° |
| 2026-04-14 02:35 | -44.46558 | 170.20902 | 25397 ft | 279 kts | 247° |
| 2026-04-14 02:35 | -44.47516 | 170.18541 | 25397 ft | 279 kts | 247° |
| 2026-04-14 02:35 | -44.48473 | 170.16178 | 25402 ft | 279 kts | 247° |
| 2026-04-14 02:35 | -44.49429 | 170.13817 | 25410 ft | 279 kts | 247° |
| 2026-04-14 02:36 | -44.50383 | 170.11458 | 25413 ft | 279 kts | 247° |
| 2026-04-14 02:36 | -44.51339 | 170.09092 | 25414 ft | 279 kts | 247° |
| 2026-04-14 02:36 | -44.52293 | 170.06730 | 25415 ft | 279 kts | 247° |
| 2026-04-14 02:36 | -44.53246 | 170.04366 | 25415 ft | 279 kts | 247° |
| 2026-04-14 02:37 | -44.54189 | 170.02027 | 25415 ft | 279 kts | 247° |
| 2026-04-14 02:37 | -44.55141 | 169.99659 | 25416 ft | 279 kts | 247° |
| 2026-04-14 02:37 | -44.56103 | 169.97262 | 25416 ft | 279 kts | 247° |
| 2026-04-14 02:37 | -44.57044 | 169.94920 | 25416 ft | 279 kts | 247° |
| 2026-04-14 02:38 | -44.57998 | 169.92550 | 25416 ft | 279 kts | 247° |
| 2026-04-14 02:38 | -44.58951 | 169.90178 | 25416 ft | 279 kts | 246° |
| 2026-04-14 02:38 | -44.59905 | 169.87801 | 25416 ft | 279 kts | 247° |
| 2026-04-14 02:38 | -44.60857 | 169.85422 | 25416 ft | 280 kts | 247° |
| 2026-04-14 02:39 | -44.61497 | 169.83812 | 25416 ft | 279 kts | 247° |
| 2026-04-14 02:39 | -44.62403 | 169.81435 | 25417 ft | 279 kts | 248° |
| 2026-04-14 02:39 | -44.63299 | 169.79016 | 25417 ft | 279 kts | 249° |
| 2026-04-14 02:39 | -44.64182 | 169.76591 | 25418 ft | 279 kts | 249° |
| 2026-04-14 02:40 | -44.65066 | 169.74161 | 25418 ft | 279 kts | 249° |
| 2026-04-14 02:40 | -44.65950 | 169.71730 | 25339 ft | 282 kts | 249° |
| 2026-04-14 02:40 | -44.66854 | 169.69233 | 24618 ft | 283 kts | 249° |
| 2026-04-14 02:40 | -44.67736 | 169.66817 | 23895 ft | 273 kts | 249° |
| 2026-04-14 02:41 | -44.68590 | 169.64481 | 23159 ft | 265 kts | 249° |
| 2026-04-14 02:41 | -44.69425 | 169.62188 | 22291 ft | 263 kts | 249° |
| 2026-04-14 02:41 | -44.70254 | 169.59902 | 21377 ft | 263 kts | 249° |
| 2026-04-14 02:41 | -44.71082 | 169.57612 | 20453 ft | 262 kts | 249° |
| 2026-04-14 02:42 | -44.71909 | 169.55327 | 19623 ft | 260 kts | 249° |
| 2026-04-14 02:42 | -44.72720 | 169.53091 | 18886 ft | 254 kts | 249° |
| 2026-04-14 02:42 | -44.73513 | 169.50909 | 18289 ft | 245 kts | 249° |
| 2026-04-14 02:42 | -44.74275 | 169.48803 | 17801 ft | 238 kts | 250° |
| 2026-04-14 02:43 | -44.75014 | 169.46756 | 17329 ft | 232 kts | 250° |
| 2026-04-14 02:43 | -44.75743 | 169.44723 | 16916 ft | 232 kts | 250° |
| 2026-04-14 02:43 | -44.76467 | 169.42693 | 16571 ft | 238 kts | 249° |
| 2026-04-14 02:43 | -44.77221 | 169.40591 | 16269 ft | 242 kts | 249° |
| 2026-04-14 02:44 | -44.77985 | 169.38465 | 15969 ft | 244 kts | 249° |
| 2026-04-14 02:44 | -44.78756 | 169.36316 | 15653 ft | 247 kts | 249° |
| 2026-04-14 02:44 | -44.79543 | 169.34127 | 15221 ft | 253 kts | 249° |
| 2026-04-14 02:44 | -44.80343 | 169.31907 | 14870 ft | 254 kts | 249° |
| 2026-04-14 02:45 | -44.81127 | 169.29680 | 14548 ft | 254 kts | 249° |
| 2026-04-14 02:45 | -44.81938 | 169.27463 | 14220 ft | 254 kts | 248° |
| 2026-04-14 02:45 | -44.82741 | 169.25264 | 13891 ft | 246 kts | 248° |
| 2026-04-14 02:45 | -44.83335 | 169.23110 | 13521 ft | 227 kts | 258° |
| 2026-04-14 02:46 | -44.83711 | 169.21006 | 13122 ft | 216 kts | 263° |
| 2026-04-14 02:46 | -44.84007 | 169.18967 | 12718 ft | 209 kts | 264° |
| 2026-04-14 02:46 | -44.84385 | 169.17029 | 12323 ft | 216 kts | 250° |
| 2026-04-14 02:46 | -44.85251 | 169.15168 | 11948 ft | 237 kts | 236° |
| 2026-04-14 02:47 | -44.86429 | 169.13444 | 11556 ft | 250 kts | 228° |
| 2026-04-14 02:47 | -44.87742 | 169.11841 | 11079 ft | 245 kts | 224° |
| 2026-04-14 02:47 | -44.89054 | 169.10367 | 10474 ft | 237 kts | 222° |
| 2026-04-14 02:47 | -44.90344 | 169.08970 | 9992 ft | 230 kts | 220° |
| 2026-04-14 02:48 | -44.91758 | 169.07887 | 9747 ft | 233 kts | 204° |
| 2026-04-14 02:48 | -44.93322 | 169.07271 | 9492 ft | 234 kts | 195° |
| 2026-04-14 02:48 | -44.94924 | 169.06886 | 9239 ft | 233 kts | 191° |
| 2026-04-14 02:48 | -44.96537 | 169.06577 | 8690 ft | 231 kts | 192° |
| 2026-04-14 02:49 | -44.97976 | 169.05796 | 8015 ft | 216 kts | 216° |
| 2026-04-14 02:49 | -44.99052 | 169.04421 | 7421 ft | 203 kts | 233° |
| 2026-04-14 02:49 | -44.99856 | 169.02736 | 7154 ft | 207 kts | 243° |
| 2026-04-14 02:49 | -45.00475 | 169.00933 | 6973 ft | 198 kts | 249° |
| 2026-04-14 02:50 | -45.00965 | 168.99124 | 6585 ft | 195 kts | 252° |
| 2026-04-14 02:50 | -45.01283 | 168.97410 | 6351 ft | 167 kts | 268° |
| 2026-04-14 02:50 | -45.01211 | 168.95822 | 6077 ft | 168 kts | 280° |
| 2026-04-14 02:50 | -45.00998 | 168.94038 | 5791 ft | 189 kts | 281° |
| 2026-04-14 02:51 | -45.00755 | 168.92187 | 5386 ft | 188 kts | 283° |
| 2026-04-14 02:51 | -45.00498 | 168.90423 | 4907 ft | 190 kts | 283° |
| 2026-04-14 02:51 | -45.00197 | 168.88675 | 4365 ft | 179 kts | 285° |
| 2026-04-14 02:51 | -44.99998 | 168.86983 | 3746 ft | 166 kts | 268° |
| 2026-04-14 02:52 | -45.00173 | 168.85447 | 3413 ft | 161 kts | 260° |
| 2026-04-14 02:52 | -45.00361 | 168.83841 | 3047 ft | 167 kts | 260° |
| 2026-04-14 02:52 | -45.00581 | 168.82360 | 2606 ft | 141 kts | 258° |
| 2026-04-14 02:52 | -45.00783 | 168.81088 | 2245 ft | 128 kts | 257° |
| 2026-04-14 02:53 | -45.00974 | 168.79946 | 1941 ft | 119 kts | 255° |
| 2026-04-14 02:53 | -45.01145 | 168.78829 | 1699 ft | 107 kts | 257° |
| 2026-04-14 02:53 | -45.01309 | 168.77826 | 1507 ft | 116 kts | 253° |
| 2026-04-14 02:53 | -45.01477 | 168.76806 | 1335 ft | 98 kts | 251° |
| 2026-04-14 02:54 | -45.01642 | 168.75826 | 1208 ft | 102 kts | 254° |
| 2026-04-14 02:54 | -45.01772 | 168.75017 | 1160 ft | 68 kts | 257° |
| 2026-04-14 02:54 | -45.01856 | 168.74481 | 1160 ft | 47 kts | 256° |
| 2026-04-14 02:54 | -45.01915 | 168.74119 | 1160 ft | 30 kts | 256° |
| 2026-04-14 02:55 | -45.02039 | 168.73990 | 1160 ft | 17 kts | 232° |
| 2026-04-14 02:55 | -45.02055 | 168.73867 | 1160 ft | 12 kts | 253° |
| 2026-04-14 02:55 | -45.02088 | 168.73814 | 1160 ft | 3 kts | 261° |
| 2026-04-14 02:55 | -45.02089 | 168.73805 | 1160 ft | 0 kts | 261° |
| 2026-04-14 02:56 | -45.02089 | 168.73804 | 1160 ft | 0 kts | 261° |